Terminal Aerodrome Forecast
Issued by NWS

Home | Current Version | Previous Version | Text Only | Print | Product List | Glossary On
Versions: 1 2 3 4 5 6 7 8 9 10 11 12 13 14 15 16 17 18 19 20 21
000
FTUS43 KGRR 132300 RRA
TAFJXN
TAF
KJXN 132340Z 1400/1424 28005KT P6SM SCT060
     FM140900 21003KT 5SM BR BKN060
     FM141500 26007KT P6SM VCSH BKN040
     FM142200 26010G20KT P6SM VCTS BKN040CB=

USA.gov is the U.S. government's official web portal to all federal, state and local government web resources and services.